Terminal Aerodrome Forecast
Issued by NWS

Home | Current Version | Previous Version | Text Only | Print | Product List | Glossary On
Versions: 1 2 3 4 5 6 7 8 9 10 11 12 13
000
FTUS42 TJSJ 011721 AAA
TAFKPK
TAF AMD
TKPK 011721Z 0118/0218 05007KT P6SM VCTS SCT018CB SCT030
     FM012300 08009KT P6SM SCT022
     FM021230 10011KT P6SM FEW025
      AMD NOT SKED 0202/0211=

USA.gov is the U.S. government's official web portal to all federal, state and local government web resources and services.